Terminal Aerodrome Forecast
Issued by NWS Central Illinois

Home | Current Version | Previous Version | Text Only | Print | Product List | Glossary On
Versions: 1 2 3 4 5 6 7 8 9 10 11 12 13 14 15 16 17 18 19 20 21 22 23 24 25 26
000
FTUS43 KILX 280520
TAFSPI
TAF
KSPI 280520Z 2806/2906 15004KT P6SM BKN100
     FM281500 13013KT P6SM -SHRA OVC045
     FM282100 14011KT P6SM VCSH OVC015
     FM290000 14009KT P6SM OVC012=

USA.gov is the U.S. government's official web portal to all federal, state and local government web resources and services.